Latest Weather Observations for Esperance Airport

IDW60801

Issued at 6:02 pm WST Tuesday 1 September 2015 (issued every 30 minutes, with the page automatically refreshed every 10 minutes)

About weather observations | Map of weather stations | Latest weather observations for WA | Other Formats
Station Details ID: 009542 Name: ESPERANCE AERO Lat: -33.68 Lon: 121.83 Height: 142.0 m
Data from the previous 72 hours. | See also: Recent months at Esperance Airport
Date/Time
WST
Temp
°C
App
Temp
°C
Dew
Point
Rel
Hum
%
Delta-T
°C
Wind Press
QNH
hPa
Press
MSL
hPa
Rain
since 9 am
mm
Dir
 
Spd
km/h
Gust
km/h
Spd
kts
Gust
kts
01/06:00pm 8.1 3.9 7.3 95 0.4 SW 19 26 10 14 1020.1 1020.1 5.2
01/05:30pm 8.1 4.3 7.7 97 0.2 SW 17 20 9 11 1019.7 1019.6 5.2
01/05:11pm 8.2 3.4 7.4 95 0.4 SW 22 30 12 16 1019.4 1019.3 5.2
01/05:00pm 8.1 1.6 8.0 99 0.0 SW 32 46 17 25 1019.3 1019.2 5.2
01/04:55pm 7.8 1.5 7.5 98 0.1 SW 30 46 16 25 1019.3 1019.2 5.2
01/04:54pm 7.8 1.9 7.4 97 0.2 SW 28 46 15 25 1019.3 1019.2 5.2
01/04:30pm 8.8 3.8 8.0 95 0.4 SW 24 32 13 17 1018.9 1018.8 5.2
01/04:11pm 8.2 1.1 8.1 99 0.0 SW 35 50 19 27 1018.8 1018.7 5.0
01/04:00pm 8.2 1.6 7.9 98 0.1 SW 32 46 17 25 1018.8 1018.7 5.0
01/03:57pm 8.4 1.6 7.6 95 0.4 SW 33 46 18 25 1018.7 1018.6 5.0
01/03:52pm 8.6 1.3 7.1 90 0.7 SSW 35 46 19 25 1018.6 1018.5 4.8
01/03:30pm 10.9 3.1 6.8 76 2.0 SSW 37 50 20 27 1017.9 1017.8 4.8
01/03:00pm 11.1 3.1 7.4 78 1.8 SSW 39 56 21 30 1017.7 1017.6 4.8
01/02:30pm 10.8 2.3 7.1 78 1.8 SSW 41 52 22 28 1017.2 1017.1 4.8
01/02:15pm 10.9 3.0 8.0 82 1.4 SSW 39 59 21 32 1017.1 1017.0 4.8
01/02:00pm 10.1 2.0 8.7 91 0.7 SSW 41 57 22 31 1017.1 1017.0 4.8
01/01:52pm 9.1 1.5 9.0 99 0.0 SSW 39 57 21 31 1017.1 1017.0 4.8
01/01:44pm 8.9 1.2 8.5 97 0.2 SSW 39 57 21 31 1017.0 1016.9 4.8
01/01:39pm 9.6 2.0 9.1 97 0.2 SW 39 57 21 31 1016.9 1016.8 4.8
01/01:30pm 10.1 2.2 9.3 95 0.4 SW 41 56 22 30 1016.7 1016.6 4.8
01/01:00pm 9.2 3.3 8.9 98 0.1 SSW 30 43 16 23 1016.3 1016.3 4.4
01/12:30pm 7.7 -0.3 7.6 99 0.0 S 39 65 21 35 1016.3 1016.3 4.2
01/12:14pm 10.6 3.7 10.4 99 0.1 SSW 37 57 20 31 1015.8 1015.8 4.2
01/12:00pm 9.5 2.0 9.4 99 0.0 SSW 39 52 21 28 1016.0 1016.0 4.2
01/11:45am 9.1 2.6 9.0 99 0.0 SSW 33 54 18 29 1015.9 1015.9 4.2
01/11:43am 9.0 2.7 8.9 99 0.0 SSW 32 48 17 26 1015.9 1015.9 4.2
01/11:30am 7.7 -1.2 7.6 99 0.0 SSW 44 76 24 41 1015.8 1015.8 4.2
01/11:28am 7.6 -1.7 7.5 99 0.0 SSW 46 76 25 41 1015.8 1015.8 4.2
01/11:23am 6.7 -2.8 6.6 99 0.0 SSW 46 76 25 41 1015.7 1015.7 4.0
01/11:22am 6.8 -2.7 6.5 98 0.1 SSW 46 76 25 41 1015.6 1015.6 3.8
01/11:21am 8.3 -0.5 7.4 94 0.4 SSW 43 76 23 41 1015.6 1015.6 3.2
01/11:00am 10.1 3.1 9.8 98 0.2 SSW 37 52 20 28 1015.6 1015.6 3.2
01/10:50am 9.2 3.3 9.1 99 0.0 SSW 30 43 16 23 1015.6 1015.6 3.2
01/10:43am 8.3 1.6 8.2 99 0.0 SSW 33 52 18 28 1015.5 1015.5 3.2
01/10:30am 7.3 -0.4 7.2 99 0.0 SW 37 52 20 28 1015.7 1015.7 2.8
01/10:00am 7.1 -2.3 7.0 99 0.0 SW 46 69 25 37 1015.3 1015.3 0.8
01/09:52am 7.4 -0.6 7.3 99 0.0 SW 39 69 21 37 1015.1 1015.1 0.2
01/09:41am 8.8 1.0 8.4 97 0.2 SSW 39 57 21 31 1014.6 1014.6 0.0
01/09:30am 10.1 1.6 8.5 90 0.8 S 43 56 23 30 1014.5 1014.5 0.0
01/09:00am 9.6 1.5 8.8 95 0.4 SSW 41 59 22 32 1014.1 1014.1 15.6
01/08:40am 8.9 3.3 8.8 99 0.0 SSW 28 48 15 26 1013.8 1013.7 15.6
01/08:31am 7.7 2.6 7.6 99 0.0 SSW 24 33 13 18 1013.8 1013.7 15.6
01/08:30am 7.7 3.0 7.6 99 0.0 SSW 22 33 12 18 1013.8 1013.7 15.6
01/08:03am 7.9 0.7 7.8 99 0.0 SW 35 61 19 33 1013.4 1013.3 15.0
01/08:00am 8.5 2.4 8.4 99 0.0 SW 30 57 16 31 1013.1 1013.0 14.8
01/07:59am 8.6 2.9 8.5 99 0.0 SW 28 48 15 26 1013.2 1013.2 14.8
01/07:45am 8.1 2.3 8.0 99 0.0 SSW 28 35 15 19 1013.1 1013.1 14.6
01/07:30am 7.3 2.9 7.3 100 0.0 WSW 20 32 11 17 1012.9 1012.9 14.6
01/07:22am 6.6 2.0 6.6 100 0.0 WNW 20 32 11 17 1012.7 1012.7 14.0
01/07:09am 6.1 2.0 6.1 100 0.0 WNW 17 19 9 10 1012.6 1012.6 13.6
01/07:00am 5.8 1.6 5.7 99 0.0 W 17 20 9 11 1012.6 1012.6 13.6
01/06:50am 5.8 1.2 5.8 100 0.0 WSW 19 26 10 14 1012.5 1012.5 13.6
01/06:31am 5.6 0.8 5.5 99 0.0 W 20 28 11 15 1012.4 1012.4 13.2
01/06:30am 5.6 0.8 5.5 99 0.0 W 20 28 11 15 1012.5 1012.5 13.2
01/06:25am 5.7 0.1 5.6 99 0.0 W 24 32 13 17 1012.3 1012.3 12.6
01/06:12am 5.7 -1.0 5.6 99 0.0 W 30 43 16 23 1012.1 1012.1 12.6
01/06:06am 5.8 -1.3 5.7 99 0.0 W 32 43 17 23 1012.1 1012.1 12.4
01/06:00am 5.7 -1.6 5.6 99 0.0 W 33 44 18 24 1011.7 1011.7 11.8
01/05:30am 5.9 -0.8 5.8 99 0.0 W 30 39 16 21 1011.0 1011.0 11.8
01/05:00am 6.1 -1.5 6.0 99 0.0 W 35 43 19 23 1010.7 1010.7 11.8
01/04:48am 6.1 -0.9 6.0 99 0.0 W 32 39 17 21 1010.7 1010.7 11.8
01/04:34am 6.1 -1.5 6.0 99 0.0 W 35 46 19 25 1010.9 1010.9 11.6
01/04:30am 6.1 -2.2 6.0 99 0.0 W 39 48 21 26 1010.9 1010.9 11.6
01/04:13am 6.2 -1.3 6.1 99 0.0 WSW 35 54 19 29 1011.0 1011.0 11.0
01/04:10am 6.3 -0.7 6.2 99 0.0 WSW 32 48 17 26 1011.1 1011.1 10.6
01/04:00am 6.3 0.1 6.2 99 0.0 W 28 41 15 22 1010.8 1010.8 10.2
01/03:56am 6.4 1.0 6.3 99 0.0 W 24 32 13 17 1010.6 1010.6 10.2
01/03:54am 6.5 1.1 6.5 100 0.0 W 24 32 13 17 1010.6 1010.6 10.2
01/03:30am 6.8 -0.6 6.8 100 0.0 W 35 48 19 26 1010.4 1010.4 9.4
01/03:24am 6.8 -1.0 6.8 100 0.0 W 37 48 20 26 1010.1 1010.1 9.0
01/03:18am 6.7 -0.7 6.7 100 0.0 W 35 46 19 25 1010.1 1010.1 9.0
01/03:16am 6.6 -0.8 6.6 100 0.0 W 35 43 19 23 1010.1 1010.1 8.8
01/03:00am 6.3 -1.6 6.2 99 0.0 W 37 48 20 26 1010.3 1010.3 8.8
01/02:42am 6.4 -1.1 6.3 99 0.0 W 35 52 19 28 1010.5 1010.5 7.6
01/02:39am 6.3 -0.8 6.2 99 0.0 W 33 43 18 23 1010.6 1010.6 7.6
01/02:37am 6.3 -0.8 6.2 99 0.0 W 33 43 18 23 1010.6 1010.6 7.2
01/02:33am 6.4 -0.5 6.3 99 0.0 W 32 43 17 23 1010.5 1010.5 7.0
01/02:30am 6.4 -0.5 6.3 99 0.0 W 32 41 17 22 1010.3 1010.3 7.0
01/02:17am 6.5 -0.6 6.4 99 0.0 W 33 50 18 27 1010.3 1010.3 7.0
01/02:01am 6.8 0.0 6.7 99 0.0 W 32 41 17 22 1010.7 1010.7 6.4
01/02:00am 6.8 0.0 6.7 99 0.0 W 32 41 17 22 1010.7 1010.7 6.4
01/01:45am 6.7 -0.3 6.7 100 0.0 W 33 41 18 22 1011.0 1011.0 5.8
01/01:42am 6.7 -0.3 6.7 100 0.0 W 33 43 18 23 1011.0 1011.0 5.6
01/01:30am 6.8 -0.6 6.8 100 0.0 W 35 50 19 27 1011.0 1011.0 5.6
01/01:19am 6.9 -0.1 6.9 100 0.0 W 33 48 18 26 1011.1 1011.1 5.2
01/01:00am 7.4 1.1 7.4 100 0.0 W 30 41 16 22 1011.1 1011.1 4.6
01/12:57am 7.4 0.7 7.4 100 0.0 W 32 41 17 22 1011.1 1011.1 4.6
01/12:35am 7.5 -0.1 7.5 100 0.0 W 37 48 20 26 1011.2 1011.2 4.4
01/12:30am 7.6 0.8 7.6 100 0.0 W 33 46 18 25 1011.2 1011.2 4.4
01/12:21am 7.6 1.7 7.6 100 0.0 WNW 28 35 15 19 1011.1 1011.1 4.4
01/12:18am 7.5 2.0 7.5 100 0.0 WNW 26 33 14 18 1011.0 1011.0 4.4
01/12:00am 7.6 2.1 7.6 100 0.0 W 26 33 14 18 1011.0 1011.0 4.2
 
Date/Time
WST
Temp
°C
App
Temp
°C
Dew
Point
Rel
Hum
%
Delta-T
°C
Wind Press
QNH
hPa
Press
MSL
hPa
Rain
since 9 am
mm
Dir
 
Spd
km/h
Gust
km/h
Spd
kts
Gust
kts
31/11:59pm 7.6 2.1 7.6 100 0.0 W 26 33 14 18 1011.0 1011.0 4.2
31/11:53pm 7.4 1.9 7.4 100 0.0 W 26 33 14 18 1011.1 1011.1 4.2
31/11:37pm 7.5 0.7 7.5 100 0.0 W 33 44 18 24 1011.3 1011.3 4.2
31/11:31pm 7.6 0.0 7.6 100 0.0 WSW 37 56 20 30 1011.3 1011.3 4.2
31/11:30pm 7.7 -0.2 7.7 100 0.0 WSW 39 56 21 30 1011.3 1011.3 4.2
31/11:16pm 8.1 1.6 8.1 100 0.0 W 32 52 17 28 1011.4 1011.4 3.4
31/11:10pm 8.3 2.6 8.3 100 0.0 W 28 39 15 21 1011.1 1011.1 2.4
31/11:00pm 8.4 2.7 8.4 100 0.0 W 28 35 15 19 1011.0 1011.0 2.4
31/10:48pm 8.4 2.7 8.4 100 0.0 W 28 37 15 20 1011.1 1011.1 2.4
31/10:47pm 8.4 2.7 8.4 100 0.0 W 28 37 15 20 1011.1 1011.1 2.4
31/10:30pm 8.6 2.2 8.5 99 0.0 W 32 39 17 21 1011.2 1011.2 2.4
31/10:00pm 8.6 2.0 8.5 99 0.0 W 33 43 18 23 1011.5 1011.5 2.2
31/09:30pm 8.6 2.9 8.5 99 0.0 WNW 28 33 15 18 1011.8 1011.8 2.2
31/09:00pm 8.7 3.4 8.6 99 0.0 WNW 26 35 14 19 1011.8 1011.8 2.2
31/08:30pm 9.2 4.5 9.1 99 0.0 WNW 24 33 13 18 1011.6 1011.6 2.2
31/08:00pm 9.5 4.8 9.4 99 0.0 NW 24 35 13 19 1011.9 1011.9 2.2
31/07:43pm 9.4 3.9 9.3 99 0.0 WNW 28 43 15 23 1012.2 1012.2 2.2
31/07:30pm 9.5 2.7 9.4 99 0.0 WNW 35 44 19 24 1012.6 1012.6 2.0
31/07:12pm 10.0 1.7 9.9 99 0.1 W 44 56 24 30 1012.5 1012.5 0.8
31/07:00pm 10.9 2.2 10.1 95 0.4 W 46 63 25 34 1012.5 1012.5 0.6
31/06:33pm 11.8 8.0 9.2 84 1.3 NW 19 65 10 35 1011.9 1011.9 0.6
31/06:30pm 11.6 8.8 8.6 82 1.5 NW 13 20 7 11 1011.1 1011.1 0.6
31/06:00pm 11.4 8.9 8.3 81 1.5 NW 11 15 6 8 1011.0 1011.0 0.6
31/05:30pm 12.5 9.4 9.0 79 1.8 NW 15 19 8 10 1011.1 1011.1 0.4
31/05:00pm 14.7 11.3 10.5 76 2.2 WNW 19 24 10 13 1011.1 1011.1 0.4
31/04:30pm 15.1 13.0 11.3 78 2.0 WNW 13 17 7 9 1011.1 1011.1 0.4
31/04:00pm 14.9 11.0 10.7 76 2.2 W 22 32 12 17 1011.4 1011.4 0.4
31/03:30pm 15.1 13.4 13.6 91 0.8 NW 15 26 8 14 1011.6 1011.6 0.4
31/03:00pm 15.4 13.6 13.4 88 1.1 NNW 15 22 8 12 1011.8 1011.8 0.4
31/02:30pm 15.5 13.9 14.0 91 0.9 NNW 15 19 8 10 1012.1 1012.1 0.4
31/02:00pm 14.5 12.0 13.5 94 0.6 NW 19 24 10 13 1012.7 1012.7 0.4
31/01:30pm 12.7 8.2 11.4 92 0.7 NNW 26 33 14 18 1013.1 1013.1 0.2
31/01:00pm 15.6 11.3 10.8 73 2.6 NW 24 35 13 19 1013.4 1013.4 0.0
31/12:30pm 16.3 12.2 11.5 73 2.6 N 24 32 13 17 1014.0 1014.0 0.0
31/12:00pm 17.4 13.1 12.1 71 2.9 N 26 35 14 19 1014.7 1014.7 0.0
31/11:30am 16.3 11.6 10.8 70 3.0 NNW 26 35 14 19 1015.5 1015.5 0.0
31/11:00am 15.2 10.0 10.2 72 2.6 N 28 37 15 20 1016.5 1016.5 0.0
31/10:30am 14.0 8.7 9.8 76 2.2 N 28 37 15 20 1017.1 1017.1 0.0
31/10:00am 13.3 8.3 10.8 85 1.3 N 28 35 15 19 1017.6 1017.6 0.0
31/09:30am 13.2 9.4 11.1 87 1.1 N 22 30 12 16 1017.9 1017.9 0.0
31/09:00am 12.7 7.3 10.9 89 0.9 N 30 39 16 21 1018.3 1018.3 0.0
31/08:30am 11.7 6.5 10.4 92 0.7 N 28 39 15 21 1018.4 1018.4 0.0
31/08:00am 10.9 6.5 10.3 96 0.3 N 24 32 13 17 1018.4 1018.4 0.0
31/07:30am 10.0 5.4 9.7 98 0.2 N 24 35 13 19 1018.1 1018.1 0.0
31/07:00am 9.4 5.1 9.3 99 0.0 NNE 22 35 12 19 1018.1 1018.1 0.0
31/06:30am 9.2 4.8 9.1 99 0.0 NNE 22 30 12 16 1017.9 1017.9 0.0
31/06:00am 9.0 5.2 8.9 99 0.0 NNE 19 24 10 13 1018.1 1018.1 0.0
31/05:30am 9.0 5.5 8.9 99 0.0 NNE 17 22 9 12 1018.4 1018.4 0.0
31/05:00am 8.9 5.4 8.8 99 0.0 NNE 17 20 9 11 1018.6 1018.6 0.0
31/04:30am 9.1 5.7 9.0 99 0.0 NNE 17 20 9 11 1018.7 1018.7 0.0
31/04:00am 9.3 6.3 9.2 99 0.0 NNE 15 22 8 12 1018.7 1018.7 0.0
31/03:30am 9.7 7.1 9.4 98 0.2 NNE 13 15 7 8 1018.9 1018.9 0.0
31/03:00am 9.8 7.7 9.7 99 0.1 NNE 11 15 6 8 1019.2 1019.2 0.0
31/02:30am 9.6 7.8 9.5 99 0.1 NNE 9 15 5 8 1019.4 1019.4 0.0
31/02:00am 9.7 7.6 9.6 99 0.1 NNE 11 13 6 7 1019.6 1019.6 0.0
31/01:30am 9.9 8.5 9.6 98 0.2 NE 7 9 4 5 1019.7 1019.7 0.0
31/01:00am 8.8 6.0 8.7 99 0.0 N 13 17 7 9 1020.3 1020.3 0.0
31/12:30am 9.0 7.1 8.9 99 0.0 NE 9 11 5 6 1020.5 1020.5 0.0
31/12:00am 7.4 5.4 7.3 99 0.0 N 7 9 4 5 1020.7 1020.7 0.0
 
Date/Time
WST
Temp
°C
App
Temp
°C
Dew
Point
Rel
Hum
%
Delta-T
°C
Wind Press
QNH
hPa
Press
MSL
hPa
Rain
since 9 am
mm
Dir
 
Spd
km/h
Gust
km/h
Spd
kts
Gust
kts
30/11:30pm 9.7 9.6 9.4 98 0.2 CALM 0 0 0 0 1020.7 1020.7 0.0
30/11:00pm 8.4 7.3 8.3 99 0.0 N 4 9 2 5 1020.8 1020.8 0.0
30/10:30pm 7.2 5.2 7.1 99 0.0 N 7 9 4 5 1021.1 1021.1 0.0
30/10:00pm 8.5 8.1 8.4 99 0.0 CALM 0 6 0 3 1021.0 1021.0 0.0
30/09:30pm 8.1 6.7 7.2 94 0.4 SE 4 7 2 4 1021.5 1021.5 0.0
30/09:00pm 9.6 8.3 9.3 98 0.1 SSW 6 9 3 5 1021.4 1021.4 0.0
30/08:30pm 10.8 9.4 8.9 88 0.9 SE 6 9 3 5 1021.5 1021.5 0.0
30/08:00pm 10.5 9.6 9.3 92 0.6 S 4 9 2 5 1021.2 1021.2 0.0
30/07:30pm 10.3 9.6 8.7 90 0.8 S 2 6 1 3 1021.1 1021.1 0.0
30/07:00pm 11.2 9.9 9.1 87 1.1 S 6 9 3 5 1020.8 1020.8 0.0
30/06:30pm 11.0 9.6 9.6 91 0.7 SSW 7 9 4 5 1020.7 1020.7 0.0
30/06:00pm 11.5 9.5 10.2 92 0.7 SSW 11 13 6 7 1020.3 1020.3 0.0
30/05:30pm 12.4 10.4 10.3 87 1.1 SSW 11 15 6 8 1020.1 1020.1 0.0
30/05:00pm 13.6 9.1 10.0 79 1.9 SSW 24 28 13 15 1019.7 1019.7 0.0
30/04:30pm 14.3 10.2 11.5 83 1.5 SSW 24 32 13 17 1019.5 1019.5 0.0
30/04:00pm 14.5 9.5 10.9 79 1.9 SSW 28 39 15 21 1019.2 1019.2 0.0
30/03:30pm 14.9 10.0 11.3 79 1.9 SSW 28 35 15 19 1018.8 1018.8 0.0
30/03:00pm 16.1 10.8 11.1 72 2.7 SW 30 37 16 20 1018.5 1018.5 0.0
30/02:30pm 16.3 11.1 12.8 80 2.0 SW 32 39 17 21 1018.3 1018.3 0.0
30/02:00pm 16.2 10.7 12.0 76 2.3 SW 32 44 17 24 1018.1 1018.1 0.0
30/01:30pm 17.4 12.5 12.5 73 2.7 WSW 30 41 16 22 1017.8 1017.8 0.0
30/01:00pm 16.8 11.6 11.5 71 2.9 SW 30 39 16 21 1017.7 1017.7 0.0
30/12:30pm 17.1 11.6 12.6 75 2.5 SW 33 41 18 22 1017.8 1017.8 0.0
30/12:00pm 16.1 10.8 13.2 83 1.6 WSW 33 44 18 24 1017.9 1017.9 0.0
30/11:30am 17.1 12.0 13.0 77 2.3 SW 32 41 17 22 1017.8 1017.8 0.0
30/11:00am 16.9 12.1 13.0 78 2.2 WSW 30 39 16 21 1017.8 1017.8 0.0
30/10:30am 16.7 12.2 13.8 83 1.7 WSW 30 37 16 20 1017.7 1017.7 0.0
30/10:00am 16.1 11.6 13.9 87 1.2 WSW 30 39 16 21 1017.4 1017.4 0.0
30/09:30am 15.6 12.1 13.4 87 1.2 WSW 24 32 13 17 1017.1 1017.1 0.0
30/09:00am 15.6 12.3 14.1 91 0.9 WSW 24 30 13 16 1016.8 1016.8 0.4
30/08:30am 15.0 12.1 14.0 94 0.6 W 22 32 12 17 1016.6 1016.6 0.4
30/08:00am 13.7 11.0 13.4 98 0.2 W 20 26 11 14 1016.2 1016.3 0.4
30/07:30am 12.3 9.7 12.1 99 0.1 WNW 17 22 9 12 1016.1 1016.2 0.4
30/07:00am 11.2 8.7 11.0 99 0.1 WNW 15 17 8 9 1015.4 1015.4 0.4
30/06:30am 10.8 8.5 10.6 99 0.1 NW 13 17 7 9 1014.9 1014.9 0.4
30/06:00am 10.4 8.0 10.2 99 0.1 WNW 13 15 7 8 1014.4 1014.4 0.4
30/05:30am 11.0 8.4 10.8 99 0.1 WNW 15 17 8 9 1014.1 1014.1 0.4
30/05:00am 11.9 9.2 11.7 99 0.1 WNW 17 22 9 12 1013.8 1013.8 0.4
30/04:30am 11.9 9.6 11.7 99 0.1 NW 15 20 8 11 1013.4 1013.4 0.4
30/04:00am 12.9 10.8 12.4 97 0.3 WNW 15 19 8 10 1013.1 1013.1 0.4
30/03:30am 13.2 11.3 12.9 98 0.2 WNW 15 17 8 9 1012.9 1012.9 0.4
30/03:00am 13.5 11.6 12.9 96 0.3 WNW 15 17 8 9 1013.0 1013.0 0.4
30/02:30am 14.1 11.8 13.0 93 0.6 WNW 17 19 9 10 1012.9 1012.9 0.4
30/02:00am 14.4 12.9 13.1 92 0.7 NW 13 17 7 9 1012.9 1012.9 0.4
30/01:30am 14.5 12.6 13.0 91 0.8 WNW 15 17 8 9 1013.1 1013.1 0.4
30/01:00am 14.9 13.0 13.1 89 1.0 WNW 15 19 8 10 1013.1 1013.1 0.4
30/12:30am 15.1 12.8 13.1 88 1.1 WNW 17 19 9 10 1013.2 1013.2 0.4
30/12:00am 14.7 13.2 13.1 90 0.9 WNW 13 15 7 8 1013.1 1013.1 0.4
 
Date/Time
WST
Temp
°C
App
Temp
°C
Dew
Point
Rel
Hum
%
Delta-T
°C
Wind Press
QNH
hPa
Press
MSL
hPa
Rain
since 9 am
mm
Dir
 
Spd
km/h
Gust
km/h
Spd
kts
Gust
kts
29/11:30pm 14.9 13.8 13.1 89 1.0 NW 11 15 6 8 1013.1 1013.1 0.4
29/11:00pm 14.5 13.5 13.4 93 0.6 NNW 11 13 6 7 1013.1 1013.1 0.4
29/10:30pm 13.8 12.9 12.7 93 0.6 NNW 9 11 5 6 1013.3 1013.3 0.4
29/10:00pm 14.9 14.0 13.6 92 0.7 N 11 11 6 6 1013.3 1013.3 0.4
29/09:30pm 14.9 14.7 14.6 98 0.2 N 9 13 5 7 1013.5 1013.5 0.4
29/09:00pm 14.7 14.1 14.5 99 0.1 N 11 13 6 7 1013.7 1013.7 0.4
29/08:30pm 15.6 15.8 14.6 94 0.6 NNW 7 13 4 7 1013.5 1013.5 0.4
29/08:00pm 18.0 13.9 13.9 77 2.4 NNW 28 39 15 21 1013.6 1013.6 0.0
29/07:30pm 19.4 15.9 13.3 68 3.5 NNW 24 39 13 21 1013.0 1013.0 0.0
29/07:00pm 19.2 16.5 13.4 69 3.3 N 20 28 11 15 1012.2 1012.2 0.0
29/06:30pm 18.6 17.2 13.5 72 2.9 NNW 13 20 7 11 1012.0 1012.0 0.0
29/06:02pm 20.8 16.0 12.8 60 4.6 NNW 30 50 16 27 1011.8 1011.8 0.0

Other Formats:

Comma delimited format used in spreadsheet applications
http://www.bom.gov.au/fwo/IDW60801/IDW60801.95638.axf

JavaScript Object Notation format (JSON) in row-major order
http://www.bom.gov.au/fwo/IDW60801/IDW60801.95638.json